Ely Municipal Airport Ely US
ICAO: KELO
IATA: ELO
Category: Medium
Scheduled Services: No

Elevation: 1456 ft
TransAlt. 18000 ft.

Airport Communications:
AWOS 3:132.025
PRINCETON RDO:109.6
CTAF/UNICOM:122.8

KELO Zoom In..

Runways:

(A) RW 12 length 5596 ft width 100 ft
---- / hdg 120

(B) RW 30 length 5596 ft width 100 ft
---- / hdg 300

Location; KELO
Day. 22 / Time. 03.55 Zulu
* Altimeter: 30.06
* Temperature: -03° c. -26.6°f.
* Wind from: 000° Speed 00 kn.
Dewpoint: -03° c.
Visibility: 3/4 Statute Miles.
Clouds: Overcast 200 ft.
Conditions: Mist.

KELO 220355Z AUTO 00000KT 3/4SM BR OVC002 M03/M03 A3006 RMK AO2


Wind - Calm.

jpsM music video
CHECK IT OUT

jpsM - It Moves..

 
jpsmedia.com for Web Design  worldairports.se 2018   terms of use